sensor_id;sensor_type;location;lat;lon;timestamp;P1;durP1;ratioP1;P2;durP2;ratioP2
26269;SDS011;15937;50.612;6.656;2024-03-08T00:03:16;27.88;;;16.50;;
26269;SDS011;15937;50.612;6.656;2024-03-08T00:11:21;36.47;;;17.23;;
26269;SDS011;15937;50.612;6.656;2024-03-08T00:15:23;29.58;;;15.45;;
26269;SDS011;15937;50.612;6.656;2024-03-08T00:19:25;30.48;;;15.82;;
26269;SDS011;15937;50.612;6.656;2024-03-08T00:23:27;33.60;;;16.45;;
26269;SDS011;15937;50.612;6.656;2024-03-08T00:27:29;33.57;;;17.40;;
26269;SDS011;15937;50.612;6.656;2024-03-08T00:31:36;31.20;;;16.08;;
26269;SDS011;15937;50.612;6.656;2024-03-08T00:35:38;31.88;;;17.02;;
26269;SDS011;15937;50.612;6.656;2024-03-08T00:39:41;39.25;;;16.50;;
26269;SDS011;15937;50.612;6.656;2024-03-08T00:43:43;36.47;;;17.17;;
26269;SDS011;15937;50.612;6.656;2024-03-08T00:47:45;36.03;;;16.67;;
26269;SDS011;15937;50.612;6.656;2024-03-08T00:51:48;34.80;;;17.60;;
26269;SDS011;15937;50.612;6.656;2024-03-08T00:55:50;32.40;;;15.47;;
26269;SDS011;15937;50.612;6.656;2024-03-08T00:59:52;29.00;;;16.40;;
26269;SDS011;15937;50.612;6.656;2024-03-08T01:03:54;33.40;;;15.83;;
26269;SDS011;15937;50.612;6.656;2024-03-08T01:07:56;31.23;;;16.17;;
26269;SDS011;15937;50.612;6.656;2024-03-08T01:11:59;41.53;;;16.65;;
26269;SDS011;15937;50.612;6.656;2024-03-08T01:16:01;33.33;;;16.83;;
26269;SDS011;15937;50.612;6.656;2024-03-08T01:20:03;33.60;;;16.42;;
26269;SDS011;15937;50.612;6.656;2024-03-08T01:24:06;32.42;;;16.00;;
26269;SDS011;15937;50.612;6.656;2024-03-08T01:28:09;30.38;;;16.60;;
26269;SDS011;15937;50.612;6.656;2024-03-08T01:32:11;35.80;;;16.50;;
26269;SDS011;15937;50.612;6.656;2024-03-08T01:36:13;32.77;;;17.07;;
26269;SDS011;15937;50.612;6.656;2024-03-08T01:40:17;33.45;;;16.63;;
26269;SDS011;15937;50.612;6.656;2024-03-08T01:44:20;32.40;;;16.10;;
26269;SDS011;15937;50.612;6.656;2024-03-08T01:48:22;23.50;;;12.23;;
26269;SDS011;15937;50.612;6.656;2024-03-08T01:52:25;35.45;;;16.25;;
26269;SDS011;15937;50.612;6.656;2024-03-08T01:56:28;32.30;;;15.93;;
26269;SDS011;15937;50.612;6.656;2024-03-08T02:00:33;34.75;;;16.73;;
26269;SDS011;15937;50.612;6.656;2024-03-08T02:04:37;33.88;;;17.15;;
26269;SDS011;15937;50.612;6.656;2024-03-08T02:08:42;40.15;;;16.45;;
26269;SDS011;15937;50.612;6.656;2024-03-08T02:12:47;33.15;;;16.63;;
26269;SDS011;15937;50.612;6.656;2024-03-08T02:16:50;33.03;;;15.93;;
26269;SDS011;15937;50.612;6.656;2024-03-08T02:20:53;33.87;;;16.33;;
26269;SDS011;15937;50.612;6.656;2024-03-08T02:24:56;34.95;;;16.60;;
26269;SDS011;15937;50.612;6.656;2024-03-08T02:29:00;30.88;;;16.13;;
26269;SDS011;15937;50.612;6.656;2024-03-08T02:33:03;29.80;;;16.30;;
26269;SDS011;15937;50.612;6.656;2024-03-08T02:37:06;38.47;;;16.45;;
26269;SDS011;15937;50.612;6.656;2024-03-08T02:41:09;34.80;;;15.35;;
26269;SDS011;15937;50.612;6.656;2024-03-08T02:45:12;30.33;;;14.98;;
26269;SDS011;15937;50.612;6.656;2024-03-08T02:49:15;35.28;;;16.23;;
26269;SDS011;15937;50.612;6.656;2024-03-08T02:57:20;34.17;;;15.43;;
26269;SDS011;15937;50.612;6.656;2024-03-08T03:05:25;38.38;;;17.02;;
26269;SDS011;15937;50.612;6.656;2024-03-08T03:09:28;37.43;;;17.10;;
26269;SDS011;15937;50.612;6.656;2024-03-08T03:13:29;36.22;;;16.00;;
26269;SDS011;15937;50.612;6.656;2024-03-08T03:17:32;37.67;;;16.60;;
26269;SDS011;15937;50.612;6.656;2024-03-08T03:21:34;34.77;;;15.27;;
26269;SDS011;15937;50.612;6.656;2024-03-08T03:29:43;32.03;;;15.45;;
26269;SDS011;15937;50.612;6.656;2024-03-08T03:33:48;35.10;;;16.42;;
26269;SDS011;15937;50.612;6.656;2024-03-08T03:37:53;34.45;;;16.67;;
26269;SDS011;15937;50.612;6.656;2024-03-08T03:42:12;35.22;;;15.80;;
26269;SDS011;15937;50.612;6.656;2024-03-08T03:46:14;33.03;;;16.65;;
26269;SDS011;15937;50.612;6.656;2024-03-08T03:50:16;35.92;;;16.20;;
26269;SDS011;15937;50.612;6.656;2024-03-08T03:54:18;26.57;;;11.50;;
26269;SDS011;15937;50.612;6.656;2024-03-08T03:58:20;34.43;;;15.57;;
26269;SDS011;15937;50.612;6.656;2024-03-08T04:02:24;29.58;;;14.85;;
26269;SDS011;15937;50.612;6.656;2024-03-08T04:06:27;36.03;;;15.82;;
26269;SDS011;15937;50.612;6.656;2024-03-08T04:10:30;35.97;;;16.03;;
26269;SDS011;15937;50.612;6.656;2024-03-08T04:14:32;34.72;;;15.77;;
26269;SDS011;15937;50.612;6.656;2024-03-08T04:18:35;38.40;;;16.15;;
26269;SDS011;15937;50.612;6.656;2024-03-08T04:22:40;38.17;;;15.88;;
26269;SDS011;15937;50.612;6.656;2024-03-08T04:26:46;36.10;;;16.30;;
26269;SDS011;15937;50.612;6.656;2024-03-08T04:30:48;38.83;;;16.20;;
26269;SDS011;15937;50.612;6.656;2024-03-08T04:34:52;39.13;;;17.10;;
26269;SDS011;15937;50.612;6.656;2024-03-08T04:38:54;34.38;;;15.70;;
26269;SDS011;15937;50.612;6.656;2024-03-08T04:42:56;39.15;;;17.63;;
26269;SDS011;15937;50.612;6.656;2024-03-08T04:47:00;39.30;;;16.58;;
26269;SDS011;15937;50.612;6.656;2024-03-08T04:51:02;43.13;;;15.90;;
26269;SDS011;15937;50.612;6.656;2024-03-08T04:55:06;36.28;;;16.40;;
26269;SDS011;15937;50.612;6.656;2024-03-08T04:59:08;31.77;;;14.90;;
26269;SDS011;15937;50.612;6.656;2024-03-08T05:03:10;47.30;;;17.53;;
26269;SDS011;15937;50.612;6.656;2024-03-08T05:07:13;38.50;;;16.70;;
26269;SDS011;15937;50.612;6.656;2024-03-08T05:11:15;35.30;;;16.60;;
26269;SDS011;15937;50.612;6.656;2024-03-08T05:15:17;34.77;;;16.67;;
26269;SDS011;15937;50.612;6.656;2024-03-08T05:19:23;32.80;;;16.40;;
26269;SDS011;15937;50.612;6.656;2024-03-08T05:23:29;40.15;;;17.63;;
26269;SDS011;15937;50.612;6.656;2024-03-08T05:27:32;38.65;;;17.17;;
26269;SDS011;15937;50.612;6.656;2024-03-08T05:31:47;39.28;;;16.85;;
26269;SDS011;15937;50.612;6.656;2024-03-08T05:35:54;35.80;;;17.25;;
26269;SDS011;15937;50.612;6.656;2024-03-08T05:39:56;39.75;;;17.88;;
26269;SDS011;15937;50.612;6.656;2024-03-08T05:43:59;34.45;;;16.98;;
26269;SDS011;15937;50.612;6.656;2024-03-08T05:48:02;57.13;;;19.47;;
26269;SDS011;15937;50.612;6.656;2024-03-08T05:52:04;38.05;;;17.30;;
26269;SDS011;15937;50.612;6.656;2024-03-08T05:56:06;31.23;;;15.07;;
26269;SDS011;15937;50.612;6.656;2024-03-08T06:00:11;36.50;;;16.38;;
26269;SDS011;15937;50.612;6.656;2024-03-08T06:04:17;41.58;;;17.35;;
26269;SDS011;15937;50.612;6.656;2024-03-08T06:08:19;37.03;;;17.30;;
26269;SDS011;15937;50.612;6.656;2024-03-08T06:12:21;43.47;;;17.88;;
26269;SDS011;15937;50.612;6.656;2024-03-08T06:16:24;41.83;;;17.30;;
26269;SDS011;15937;50.612;6.656;2024-03-08T06:20:26;33.73;;;15.60;;
26269;SDS011;15937;50.612;6.656;2024-03-08T06:24:28;36.83;;;17.35;;
26269;SDS011;15937;50.612;6.656;2024-03-08T06:28:30;42.47;;;19.02;;
26269;SDS011;15937;50.612;6.656;2024-03-08T06:32:33;41.63;;;20.20;;
26269;SDS011;15937;50.612;6.656;2024-03-08T06:36:37;38.38;;;18.05;;
26269;SDS011;15937;50.612;6.656;2024-03-08T06:40:40;44.58;;;18.52;;
26269;SDS011;15937;50.612;6.656;2024-03-08T06:44:42;44.03;;;17.67;;
26269;SDS011;15937;50.612;6.656;2024-03-08T06:48:50;38.70;;;18.25;;
26269;SDS011;15937;50.612;6.656;2024-03-08T06:52:52;34.07;;;16.57;;
26269;SDS011;15937;50.612;6.656;2024-03-08T06:56:55;37.88;;;18.02;;
26269;SDS011;15937;50.612;6.656;2024-03-08T07:00:57;53.88;;;17.83;;
26269;SDS011;15937;50.612;6.656;2024-03-08T07:05:25;42.35;;;15.68;;
26269;SDS011;15937;50.612;6.656;2024-03-08T07:09:32;45.42;;;18.13;;
26269;SDS011;15937;50.612;6.656;2024-03-08T07:13:34;36.45;;;16.83;;
26269;SDS011;15937;50.612;6.656;2024-03-08T07:17:39;37.80;;;16.63;;
26269;SDS011;15937;50.612;6.656;2024-03-08T07:21:42;38.42;;;16.92;;
26269;SDS011;15937;50.612;6.656;2024-03-08T07:25:45;45.75;;;16.90;;
26269;SDS011;15937;50.612;6.656;2024-03-08T07:29:47;38.60;;;17.02;;
26269;SDS011;15937;50.612;6.656;2024-03-08T07:33:49;44.88;;;17.88;;
26269;SDS011;15937;50.612;6.656;2024-03-08T07:37:52;34.17;;;16.60;;
26269;SDS011;15937;50.612;6.656;2024-03-08T07:41:56;35.22;;;17.30;;
26269;SDS011;15937;50.612;6.656;2024-03-08T07:45:58;36.60;;;17.33;;
26269;SDS011;15937;50.612;6.656;2024-03-08T07:50:00;43.10;;;18.95;;
26269;SDS011;15937;50.612;6.656;2024-03-08T07:54:05;44.33;;;18.27;;
26269;SDS011;15937;50.612;6.656;2024-03-08T07:58:08;41.33;;;18.55;;
26269;SDS011;15937;50.612;6.656;2024-03-08T08:02:12;35.05;;;17.75;;
26269;SDS011;15937;50.612;6.656;2024-03-08T08:06:14;41.25;;;17.83;;
26269;SDS011;15937;50.612;6.656;2024-03-08T08:10:19;37.92;;;16.17;;
26269;SDS011;15937;50.612;6.656;2024-03-08T08:14:27;40.75;;;16.05;;
26269;SDS011;15937;50.612;6.656;2024-03-08T08:18:29;42.35;;;17.52;;
26269;SDS011;15937;50.612;6.656;2024-03-08T08:22:31;35.43;;;16.10;;
26269;SDS011;15937;50.612;6.656;2024-03-08T08:26:33;35.70;;;17.58;;
26269;SDS011;15937;50.612;6.656;2024-03-08T08:30:40;36.92;;;16.23;;
26269;SDS011;15937;50.612;6.656;2024-03-08T08:34:43;34.65;;;17.50;;
26269;SDS011;15937;50.612;6.656;2024-03-08T08:38:46;36.92;;;15.55;;
26269;SDS011;15937;50.612;6.656;2024-03-08T08:42:48;35.97;;;15.75;;
26269;SDS011;15937;50.612;6.656;2024-03-08T08:46:50;32.30;;;15.13;;
26269;SDS011;15937;50.612;6.656;2024-03-08T08:50:57;34.22;;;15.30;;
26269;SDS011;15937;50.612;6.656;2024-03-08T08:54:59;31.73;;;13.38;;
26269;SDS011;15937;50.612;6.656;2024-03-08T08:59:01;26.80;;;12.95;;
26269;SDS011;15937;50.612;6.656;2024-03-08T09:03:06;32.33;;;12.75;;
26269;SDS011;15937;50.612;6.656;2024-03-08T09:07:08;25.40;;;11.53;;
26269;SDS011;15937;50.612;6.656;2024-03-08T09:11:10;22.50;;;11.83;;
26269;SDS011;15937;50.612;6.656;2024-03-08T09:15:13;27.60;;;12.43;;
26269;SDS011;15937;50.612;6.656;2024-03-08T09:19:15;25.10;;;12.30;;
26269;SDS011;15937;50.612;6.656;2024-03-08T09:23:22;34.15;;;12.13;;
26269;SDS011;15937;50.612;6.656;2024-03-08T09:27:24;28.27;;;12.38;;
26269;SDS011;15937;50.612;6.656;2024-03-08T09:31:26;26.77;;;11.53;;
26269;SDS011;15937;50.612;6.656;2024-03-08T09:35:28;24.73;;;11.87;;
26269;SDS011;15937;50.612;6.656;2024-03-08T09:39:31;33.65;;;14.93;;
26269;SDS011;15937;50.612;6.656;2024-03-08T09:43:35;21.83;;;10.50;;
26269;SDS011;15937;50.612;6.656;2024-03-08T09:47:41;24.48;;;11.27;;
26269;SDS011;15937;50.612;6.656;2024-03-08T09:51:44;23.15;;;10.30;;
26269;SDS011;15937;50.612;6.656;2024-03-08T10:05:07;24.83;;;10.70;;
26269;SDS011;15937;50.612;6.656;2024-03-08T10:09:12;28.33;;;14.23;;
26269;SDS011;15937;50.612;6.656;2024-03-08T10:13:14;20.93;;;11.13;;
26269;SDS011;15937;50.612;6.656;2024-03-08T10:17:19;18.90;;;10.00;;
26269;SDS011;15937;50.612;6.656;2024-03-08T10:21:22;20.10;;;11.02;;
26269;SDS011;15937;50.612;6.656;2024-03-08T10:25:24;20.13;;;10.10;;
26269;SDS011;15937;50.612;6.656;2024-03-08T10:29:26;22.60;;;10.70;;
26269;SDS011;15937;50.612;6.656;2024-03-08T10:33:30;22.33;;;11.00;;
26269;SDS011;15937;50.612;6.656;2024-03-08T10:37:32;21.57;;;10.90;;
26269;SDS011;15937;50.612;6.656;2024-03-08T10:41:35;29.20;;;11.13;;
26269;SDS011;15937;50.612;6.656;2024-03-08T10:45:39;24.75;;;11.88;;
26269;SDS011;15937;50.612;6.656;2024-03-08T10:49:51;27.23;;;11.27;;
26269;SDS011;15937;50.612;6.656;2024-03-08T10:53:57;22.77;;;10.67;;
26269;SDS011;15937;50.612;6.656;2024-03-08T10:58:01;20.17;;;9.43;;
26269;SDS011;15937;50.612;6.656;2024-03-08T11:02:02;19.85;;;10.82;;
26269;SDS011;15937;50.612;6.656;2024-03-08T11:06:52;21.27;;;10.15;;
26269;SDS011;15937;50.612;6.656;2024-03-08T11:10:50;18.48;;;9.88;;
26269;SDS011;15937;50.612;6.656;2024-03-08T11:14:59;21.27;;;10.23;;
26269;SDS011;15937;50.612;6.656;2024-03-08T11:19:06;23.23;;;10.00;;
26269;SDS011;15937;50.612;6.656;2024-03-08T11:23:28;18.70;;;10.65;;
26269;SDS011;15937;50.612;6.656;2024-03-08T11:27:33;21.58;;;10.23;;
26269;SDS011;15937;50.612;6.656;2024-03-08T11:31:35;22.40;;;9.95;;
26269;SDS011;15937;50.612;6.656;2024-03-08T11:35:37;19.88;;;10.30;;
26269;SDS011;15937;50.612;6.656;2024-03-08T11:44:03;23.75;;;11.05;;
26269;SDS011;15937;50.612;6.656;2024-03-08T11:48:07;19.73;;;10.20;;
26269;SDS011;15937;50.612;6.656;2024-03-08T11:52:10;18.90;;;10.75;;
26269;SDS011;15937;50.612;6.656;2024-03-08T11:56:16;17.60;;;9.55;;
26269;SDS011;15937;50.612;6.656;2024-03-08T12:00:19;19.60;;;8.32;;
26269;SDS011;15937;50.612;6.656;2024-03-08T12:04:28;17.08;;;8.98;;
26269;SDS011;15937;50.612;6.656;2024-03-08T12:08:30;22.30;;;8.98;;
26269;SDS011;15937;50.612;6.656;2024-03-08T12:12:33;14.52;;;8.18;;
26269;SDS011;15937;50.612;6.656;2024-03-08T12:16:38;14.93;;;7.60;;
26269;SDS011;15937;50.612;6.656;2024-03-08T12:20:41;16.02;;;7.95;;
26269;SDS011;15937;50.612;6.656;2024-03-08T12:25:04;21.33;;;9.18;;
26269;SDS011;15937;50.612;6.656;2024-03-08T12:29:17;23.08;;;9.10;;
26269;SDS011;15937;50.612;6.656;2024-03-08T12:33:26;17.70;;;8.90;;
26269;SDS011;15937;50.612;6.656;2024-03-08T12:37:28;14.80;;;8.43;;
26269;SDS011;15937;50.612;6.656;2024-03-08T12:41:30;18.80;;;9.05;;
26269;SDS011;15937;50.612;6.656;2024-03-08T12:45:33;17.17;;;8.73;;
26269;SDS011;15937;50.612;6.656;2024-03-08T12:49:36;18.75;;;9.15;;
26269;SDS011;15937;50.612;6.656;2024-03-08T12:53:38;15.20;;;8.23;;
26269;SDS011;15937;50.612;6.656;2024-03-08T12:57:45;17.48;;;9.48;;
26269;SDS011;15937;50.612;6.656;2024-03-08T13:01:50;18.25;;;9.45;;
26269;SDS011;15937;50.612;6.656;2024-03-08T13:05:55;17.33;;;8.73;;
26269;SDS011;15937;50.612;6.656;2024-03-08T13:09:58;19.42;;;9.70;;
26269;SDS011;15937;50.612;6.656;2024-03-08T13:14:01;32.57;;;9.23;;
26269;SDS011;15937;50.612;6.656;2024-03-08T13:18:05;19.65;;;8.98;;
26269;SDS011;15937;50.612;6.656;2024-03-08T13:22:11;15.10;;;8.98;;
26269;SDS011;15937;50.612;6.656;2024-03-08T13:26:18;20.63;;;9.70;;
26269;SDS011;15937;50.612;6.656;2024-03-08T13:30:20;23.60;;;8.93;;
26269;SDS011;15937;50.612;6.656;2024-03-08T13:34:25;14.88;;;8.70;;
26269;SDS011;15937;50.612;6.656;2024-03-08T13:38:31;20.70;;;10.13;;
26269;SDS011;15937;50.612;6.656;2024-03-08T13:42:33;25.02;;;9.45;;
26269;SDS011;15937;50.612;6.656;2024-03-08T13:46:37;18.70;;;9.18;;
26269;SDS011;15937;50.612;6.656;2024-03-08T13:50:39;19.88;;;9.93;;
26269;SDS011;15937;50.612;6.656;2024-03-08T13:54:41;23.38;;;10.35;;
26269;SDS011;15937;50.612;6.656;2024-03-08T13:58:44;18.58;;;9.40;;
26269;SDS011;15937;50.612;6.656;2024-03-08T14:02:46;19.83;;;10.13;;
26269;SDS011;15937;50.612;6.656;2024-03-08T14:06:50;20.58;;;10.65;;
26269;SDS011;15937;50.612;6.656;2024-03-08T14:11:00;18.13;;;10.70;;
26269;SDS011;15937;50.612;6.656;2024-03-08T14:15:12;23.95;;;11.27;;
26269;SDS011;15937;50.612;6.656;2024-03-08T14:19:15;23.25;;;12.35;;
26269;SDS011;15937;50.612;6.656;2024-03-08T14:23:18;26.77;;;12.00;;
26269;SDS011;15937;50.612;6.656;2024-03-08T14:27:21;24.25;;;11.07;;
26269;SDS011;15937;50.612;6.656;2024-03-08T14:31:24;23.92;;;11.85;;
26269;SDS011;15937;50.612;6.656;2024-03-08T14:39:31;26.70;;;10.48;;
26269;SDS011;15937;50.612;6.656;2024-03-08T14:43:35;23.95;;;10.75;;
26269;SDS011;15937;50.612;6.656;2024-03-08T14:47:37;32.78;;;12.07;;
26269;SDS011;15937;50.612;6.656;2024-03-08T14:51:39;18.65;;;10.20;;
26269;SDS011;15937;50.612;6.656;2024-03-08T14:59:45;23.40;;;11.65;;
26269;SDS011;15937;50.612;6.656;2024-03-08T15:03:47;25.90;;;11.85;;
26269;SDS011;15937;50.612;6.656;2024-03-08T15:07:53;25.83;;;12.15;;
26269;SDS011;15937;50.612;6.656;2024-03-08T15:11:56;75.45;;;28.15;;
26269;SDS011;15937;50.612;6.656;2024-03-08T15:16:01;27.75;;;13.68;;
26269;SDS011;15937;50.612;6.656;2024-03-08T15:20:10;53.72;;;21.45;;
26269;SDS011;15937;50.612;6.656;2024-03-08T15:24:17;27.25;;;13.38;;
26269;SDS011;15937;50.612;6.656;2024-03-08T15:28:23;25.42;;;12.60;;
26269;SDS011;15937;50.612;6.656;2024-03-08T15:32:32;24.10;;;12.07;;
26269;SDS011;15937;50.612;6.656;2024-03-08T15:36:34;24.60;;;12.18;;
26269;SDS011;15937;50.612;6.656;2024-03-08T15:40:36;21.77;;;12.15;;
26269;SDS011;15937;50.612;6.656;2024-03-08T15:44:39;24.83;;;12.75;;
26269;SDS011;15937;50.612;6.656;2024-03-08T15:48:42;30.88;;;11.07;;
26269;SDS011;15937;50.612;6.656;2024-03-08T15:52:45;34.95;;;12.32;;
26269;SDS011;15937;50.612;6.656;2024-03-08T15:56:48;19.65;;;10.05;;
26269;SDS011;15937;50.612;6.656;2024-03-08T16:00:51;21.48;;;10.77;;
26269;SDS011;15937;50.612;6.656;2024-03-08T16:04:54;24.63;;;10.73;;
26269;SDS011;15937;50.612;6.656;2024-03-08T16:08:56;23.98;;;11.30;;
26269;SDS011;15937;50.612;6.656;2024-03-08T16:13:00;20.17;;;11.13;;
26269;SDS011;15937;50.612;6.656;2024-03-08T16:17:05;24.98;;;10.40;;
26269;SDS011;15937;50.612;6.656;2024-03-08T16:21:08;22.55;;;11.10;;
26269;SDS011;15937;50.612;6.656;2024-03-08T16:25:13;22.35;;;10.45;;
26269;SDS011;15937;50.612;6.656;2024-03-08T16:29:15;23.23;;;10.95;;
26269;SDS011;15937;50.612;6.656;2024-03-08T16:33:18;20.85;;;10.75;;
26269;SDS011;15937;50.612;6.656;2024-03-08T16:37:20;21.10;;;11.40;;
26269;SDS011;15937;50.612;6.656;2024-03-08T16:41:24;22.85;;;11.23;;
26269;SDS011;15937;50.612;6.656;2024-03-08T16:45:26;23.97;;;11.77;;
26269;SDS011;15937;50.612;6.656;2024-03-08T16:49:28;23.90;;;11.18;;
26269;SDS011;15937;50.612;6.656;2024-03-08T16:53:31;19.98;;;10.80;;
26269;SDS011;15937;50.612;6.656;2024-03-08T16:57:35;19.73;;;11.00;;
26269;SDS011;15937;50.612;6.656;2024-03-08T17:01:37;22.37;;;11.57;;
26269;SDS011;15937;50.612;6.656;2024-03-08T17:05:40;23.20;;;11.27;;
26269;SDS011;15937;50.612;6.656;2024-03-08T17:09:52;20.40;;;11.48;;
26269;SDS011;15937;50.612;6.656;2024-03-08T17:13:54;26.80;;;12.55;;
26269;SDS011;15937;50.612;6.656;2024-03-08T17:17:59;26.83;;;12.00;;
26269;SDS011;15937;50.612;6.656;2024-03-08T17:22:08;24.10;;;11.70;;
26269;SDS011;15937;50.612;6.656;2024-03-08T17:26:11;24.48;;;10.80;;
26269;SDS011;15937;50.612;6.656;2024-03-08T17:30:14;28.15;;;12.25;;
26269;SDS011;15937;50.612;6.656;2024-03-08T17:34:28;48.08;;;16.05;;
26269;SDS011;15937;50.612;6.656;2024-03-08T17:38:31;34.67;;;14.32;;
26269;SDS011;15937;50.612;6.656;2024-03-08T17:42:32;33.83;;;17.13;;
26269;SDS011;15937;50.612;6.656;2024-03-08T17:46:35;27.03;;;12.47;;
26269;SDS011;15937;50.612;6.656;2024-03-08T17:50:39;34.22;;;13.63;;
26269;SDS011;15937;50.612;6.656;2024-03-08T17:54:41;27.85;;;12.70;;
26269;SDS011;15937;50.612;6.656;2024-03-08T17:58:43;29.60;;;13.57;;
26269;SDS011;15937;50.612;6.656;2024-03-08T18:02:49;25.37;;;12.77;;
26269;SDS011;15937;50.612;6.656;2024-03-08T18:06:51;29.30;;;12.80;;
26269;SDS011;15937;50.612;6.656;2024-03-08T18:10:54;25.15;;;11.93;;
26269;SDS011;15937;50.612;6.656;2024-03-08T18:14:56;20.42;;;11.52;;
26269;SDS011;15937;50.612;6.656;2024-03-08T18:19:00;29.33;;;13.80;;
26269;SDS011;15937;50.612;6.656;2024-03-08T18:23:08;28.55;;;13.68;;
26269;SDS011;15937;50.612;6.656;2024-03-08T18:27:11;25.05;;;12.05;;
26269;SDS011;15937;50.612;6.656;2024-03-08T18:31:13;27.60;;;12.88;;
26269;SDS011;15937;50.612;6.656;2024-03-08T18:35:17;33.80;;;13.83;;
26269;SDS011;15937;50.612;6.656;2024-03-08T18:39:19;43.53;;;18.85;;
26269;SDS011;15937;50.612;6.656;2024-03-08T18:43:28;37.55;;;15.88;;
26269;SDS011;15937;50.612;6.656;2024-03-08T18:47:30;39.87;;;17.03;;
26269;SDS011;15937;50.612;6.656;2024-03-08T18:51:32;33.50;;;14.20;;
26269;SDS011;15937;50.612;6.656;2024-03-08T18:55:34;36.33;;;16.60;;
26269;SDS011;15937;50.612;6.656;2024-03-08T18:59:36;35.37;;;15.40;;
26269;SDS011;15937;50.612;6.656;2024-03-08T19:03:41;30.40;;;14.40;;
26269;SDS011;15937;50.612;6.656;2024-03-08T19:07:43;29.92;;;15.15;;
26269;SDS011;15937;50.612;6.656;2024-03-08T19:11:48;31.02;;;13.93;;
26269;SDS011;15937;50.612;6.656;2024-03-08T19:15:52;34.05;;;14.95;;
26269;SDS011;15937;50.612;6.656;2024-03-08T19:19:55;32.05;;;15.65;;
26269;SDS011;15937;50.612;6.656;2024-03-08T19:23:57;34.23;;;15.80;;
26269;SDS011;15937;50.612;6.656;2024-03-08T19:28:00;89.80;;;31.80;;
26269;SDS011;15937;50.612;6.656;2024-03-08T19:32:06;40.15;;;17.23;;
26269;SDS011;15937;50.612;6.656;2024-03-08T19:36:09;42.45;;;16.98;;
26269;SDS011;15937;50.612;6.656;2024-03-08T19:40:14;34.60;;;15.40;;
26269;SDS011;15937;50.612;6.656;2024-03-08T19:44:25;36.65;;;16.35;;
26269;SDS011;15937;50.612;6.656;2024-03-08T19:48:27;36.63;;;16.23;;
26269;SDS011;15937;50.612;6.656;2024-03-08T19:52:30;42.05;;;15.82;;
26269;SDS011;15937;50.612;6.656;2024-03-08T19:56:32;29.52;;;15.65;;
26269;SDS011;15937;50.612;6.656;2024-03-08T20:00:36;41.60;;;18.98;;
26269;SDS011;15937;50.612;6.656;2024-03-08T20:04:38;40.38;;;17.40;;
26269;SDS011;15937;50.612;6.656;2024-03-08T20:08:40;32.77;;;15.37;;
26269;SDS011;15937;50.612;6.656;2024-03-08T20:16:47;32.78;;;16.02;;
26269;SDS011;15937;50.612;6.656;2024-03-08T20:20:51;32.08;;;15.90;;
26269;SDS011;15937;50.612;6.656;2024-03-08T20:24:55;33.05;;;16.13;;
26269;SDS011;15937;50.612;6.656;2024-03-08T20:28:58;39.50;;;16.20;;
26269;SDS011;15937;50.612;6.656;2024-03-08T20:33:00;41.35;;;16.38;;
26269;SDS011;15937;50.612;6.656;2024-03-08T20:37:06;38.20;;;15.82;;
26269;SDS011;15937;50.612;6.656;2024-03-08T20:41:10;39.67;;;17.25;;
26269;SDS011;15937;50.612;6.656;2024-03-08T20:45:13;38.38;;;19.23;;
26269;SDS011;15937;50.612;6.656;2024-03-08T20:49:17;39.38;;;19.33;;
26269;SDS011;15937;50.612;6.656;2024-03-08T20:53:21;37.95;;;17.27;;
26269;SDS011;15937;50.612;6.656;2024-03-08T20:57:23;43.47;;;17.30;;
26269;SDS011;15937;50.612;6.656;2024-03-08T21:01:25;36.27;;;18.03;;
26269;SDS011;15937;50.612;6.656;2024-03-08T21:05:33;38.42;;;15.90;;
26269;SDS011;15937;50.612;6.656;2024-03-08T21:09:36;33.40;;;16.35;;
26269;SDS011;15937;50.612;6.656;2024-03-08T21:13:38;43.78;;;20.23;;
26269;SDS011;15937;50.612;6.656;2024-03-08T21:17:40;43.33;;;18.07;;
26269;SDS011;15937;50.612;6.656;2024-03-08T21:21:43;40.80;;;18.00;;
26269;SDS011;15937;50.612;6.656;2024-03-08T21:25:45;35.95;;;17.17;;
26269;SDS011;15937;50.612;6.656;2024-03-08T21:29:48;30.27;;;14.13;;
26269;SDS011;15937;50.612;6.656;2024-03-08T21:33:50;36.80;;;15.97;;
26269;SDS011;15937;50.612;6.656;2024-03-08T21:37:52;42.30;;;17.70;;
26269;SDS011;15937;50.612;6.656;2024-03-08T21:41:57;45.20;;;17.90;;
26269;SDS011;15937;50.612;6.656;2024-03-08T21:45:59;47.92;;;20.75;;
26269;SDS011;15937;50.612;6.656;2024-03-08T21:50:02;95.20;;;30.67;;
26269;SDS011;15937;50.612;6.656;2024-03-08T21:54:04;165.48;;;46.70;;
26269;SDS011;15937;50.612;6.656;2024-03-08T21:58:06;135.98;;;39.63;;
26269;SDS011;15937;50.612;6.656;2024-03-08T22:02:08;82.55;;;27.90;;
26269;SDS011;15937;50.612;6.656;2024-03-08T22:06:12;69.75;;;23.90;;
26269;SDS011;15937;50.612;6.656;2024-03-08T22:10:14;62.55;;;24.15;;
26269;SDS011;15937;50.612;6.656;2024-03-08T22:18:29;37.25;;;16.63;;
26269;SDS011;15937;50.612;6.656;2024-03-08T22:22:33;34.63;;;15.25;;
26269;SDS011;15937;50.612;6.656;2024-03-08T22:26:37;39.20;;;15.77;;
26269;SDS011;15937;50.612;6.656;2024-03-08T22:30:40;37.85;;;14.63;;
26269;SDS011;15937;50.612;6.656;2024-03-08T22:34:43;27.30;;;11.77;;
26269;SDS011;15937;50.612;6.656;2024-03-08T22:38:44;30.10;;;12.67;;
26269;SDS011;15937;50.612;6.656;2024-03-08T22:42:47;22.87;;;9.97;;
26269;SDS011;15937;50.612;6.656;2024-03-08T22:46:49;28.43;;;11.73;;
26269;SDS011;15937;50.612;6.656;2024-03-08T22:50:52;26.15;;;11.68;;
26269;SDS011;15937;50.612;6.656;2024-03-08T22:54:54;26.57;;;11.00;;
26269;SDS011;15937;50.612;6.656;2024-03-08T22:58:56;22.53;;;10.40;;
26269;SDS011;15937;50.612;6.656;2024-03-08T23:02:58;24.97;;;11.27;;
26269;SDS011;15937;50.612;6.656;2024-03-08T23:07:00;26.70;;;11.93;;
26269;SDS011;15937;50.612;6.656;2024-03-08T23:11:03;29.27;;;11.77;;
26269;SDS011;15937;50.612;6.656;2024-03-08T23:15:11;26.05;;;11.52;;
26269;SDS011;15937;50.612;6.656;2024-03-08T23:19:17;26.90;;;12.52;;
26269;SDS011;15937;50.612;6.656;2024-03-08T23:23:22;35.60;;;12.63;;
26269;SDS011;15937;50.612;6.656;2024-03-08T23:27:26;29.83;;;13.27;;
26269;SDS011;15937;50.612;6.656;2024-03-08T23:31:29;29.85;;;12.18;;
26269;SDS011;15937;50.612;6.656;2024-03-08T23:35:35;30.25;;;13.20;;
26269;SDS011;15937;50.612;6.656;2024-03-08T23:39:40;32.33;;;12.27;;
26269;SDS011;15937;50.612;6.656;2024-03-08T23:43:43;28.95;;;13.35;;
26269;SDS011;15937;50.612;6.656;2024-03-08T23:47:49;27.75;;;13.00;;
26269;SDS011;15937;50.612;6.656;2024-03-08T23:51:54;28.42;;;12.23;;
26269;SDS011;15937;50.612;6.656;2024-03-08T23:55:57;24.08;;;10.40;;
26269;SDS011;15937;50.612;6.656;2024-03-08T23:59:59;27.30;;;11.37;;
